Time;durP1;ratioP1;P1;durP2;ratioP2;P2;SDS_P1;SDS_P2;PMS_P1;PMS_P2;Temp;Humidity;BMP_temperature;BMP_pressure;BME280_temperature;BME280_humidity;BME280_pressure;Samples;Min_cycle;Max_cycle;Signal;HPM_P1;HPM_P2
2021/01/11 00:02:02;;;;;;;28.90;18.73;;;4.60;69.00;;;;;;5063158;28;20123;-58
2021/01/11 00:04:28;;;;;;;28.23;19.40;;;4.60;69.30;;;;;;5068957;28;20352;-57
2021/01/11 00:06:54;;;;;;;28.83;18.37;;;4.60;69.40;;;;;;5055561;28;20066;-58
2021/01/11 00:09:21;;;;;;;24.40;18.80;;;4.60;69.10;;;;;;5082004;28;20064;-60
2021/01/11 00:11:47;;;;;;;27.90;20.33;;;4.70;69.00;;;;;;5078944;28;20032;-59
2021/01/11 00:14:13;;;;;;;28.13;20.13;;;4.60;69.60;;;;;;5055054;28;20498;-59
2021/01/11 00:16:38;;;;;;;29.03;20.27;;;4.60;70.00;;;;;;5071382;28;20048;-58
2021/01/11 00:19:04;;;;;;;26.27;20.87;;;4.60;69.80;;;;;;5080080;28;20037;-59
2021/01/11 00:21:30;;;;;;;32.67;22.23;;;4.60;70.40;;;;;;5074944;28;20039;-60
2021/01/11 00:23:56;;;;;;;30.70;22.60;;;4.60;70.20;;;;;;5047283;28;22098;-57
2021/01/11 00:26:22;;;;;;;30.30;21.53;;;4.50;70.60;;;;;;5068314;28;20039;-59
2021/01/11 00:28:48;;;;;;;32.07;21.70;;;4.50;70.50;;;;;;5078114;28;20048;-58
2021/01/11 00:31:24;;;;;;;30.97;21.43;;;4.50;70.40;;;;;;5074163;28;20041;-58
2021/01/11 00:33:51;;;;;;;34.70;22.00;;;4.50;70.70;;;;;;5076639;28;20036;-59
2021/01/11 00:36:17;;;;;;;28.20;20.03;;;4.40;70.40;;;;;;5051372;28;20047;-58
2021/01/11 00:38:42;;;;;;;30.93;20.40;;;4.40;70.50;;;;;;5060388;28;20028;-60
2021/01/11 00:41:14;;;;;;;31.77;20.00;;;4.40;70.60;;;;;;5073883;28;20508;-58
2021/01/11 00:43:40;;;;;;;29.73;20.97;;;4.40;71.90;;;;;;5063558;28;20111;-59
2021/01/11 00:46:06;;;;;;;30.47;20.27;;;4.40;70.70;;;;;;5033588;28;20123;-60
2021/01/11 00:48:31;;;;;;;26.60;20.60;;;4.40;71.10;;;;;;5076671;28;20375;-59
2021/01/11 00:50:57;;;;;;;28.37;18.93;;;4.30;70.80;;;;;;5078282;28;20052;-60
2021/01/11 00:53:22;;;;;;;26.10;19.67;;;4.30;69.60;;;;;;5061125;28;20044;-60
2021/01/11 00:55:48;;;;;;;32.47;21.73;;;4.20;69.90;;;;;;5076097;28;20044;-59
2021/01/11 00:58:14;;;;;;;30.43;20.23;;;4.30;70.70;;;;;;5079101;28;20089;-59
2021/01/11 01:00:39;;;;;;;34.10;21.93;;;4.30;70.20;;;;;;5081035;28;20044;-59
2021/01/11 01:03:05;;;;;;;31.40;21.80;;;4.30;69.70;;;;;;5071435;28;20052;-60
2021/01/11 01:05:31;;;;;;;34.73;24.53;;;4.30;71.10;;;;;;5078757;28;20036;-59
2021/01/11 01:07:56;;;;;;;33.47;22.63;;;4.30;70.90;;;;;;5071391;28;20051;-59
2021/01/11 01:10:22;;;;;;;30.37;22.67;;;4.40;71.10;;;;;;5068634;28;20041;-58
2021/01/11 01:12:48;;;;;;;33.93;23.93;;;4.30;71.10;;;;;;5055169;28;20536;-60
2021/01/11 01:15:14;;;;;;;35.33;24.00;;;4.30;71.40;;;;;;5059056;28;20076;-60
2021/01/11 01:17:39;;;;;;;36.17;24.03;;;4.30;71.80;;;;;;5055886;28;20135;-60
2021/01/11 01:20:10;;;;;;;33.83;23.97;;;4.30;71.50;;;;;;5072349;28;20044;-60
2021/01/11 01:22:36;;;;;;;33.30;23.33;;;4.20;71.60;;;;;;5040359;28;20043;-59
2021/01/11 01:25:02;;;;;;;36.07;23.83;;;4.20;71.70;;;;;;5071075;28;20119;-59
2021/01/11 01:27:27;;;;;;;31.93;23.60;;;4.20;72.40;;;;;;5067252;28;20109;-59
2021/01/11 01:29:53;;;;;;;33.40;22.77;;;4.20;72.30;;;;;;5073560;28;20429;-59
2021/01/11 01:32:18;;;;;;;33.20;23.87;;;4.20;72.30;;;;;;5071548;28;20075;-59
2021/01/11 01:34:44;;;;;;;34.50;21.80;;;4.20;72.90;;;;;;5063406;28;20486;-58
2021/01/11 01:37:10;;;;;;;30.63;21.40;;;4.20;72.70;;;;;;5067055;28;20119;-59
2021/01/11 01:39:35;;;;;;;33.70;23.30;;;4.20;71.80;;;;;;5036209;28;20040;-59
2021/01/11 01:42:01;;;;;;;33.90;23.17;;;4.10;72.00;;;;;;5052537;28;20123;-58
2021/01/11 01:44:26;;;;;;;33.57;23.63;;;4.10;72.60;;;;;;5073782;28;20501;-59
2021/01/11 01:46:52;;;;;;;34.23;23.60;;;4.20;72.30;;;;;;5075154;28;20463;-59
2021/01/11 01:49:18;;;;;;;37.90;24.00;;;4.10;72.10;;;;;;5041580;28;20119;-60
2021/01/11 01:51:44;;;;;;;32.60;24.00;;;4.10;72.20;;;;;;5076228;28;20397;-59
2021/01/11 01:54:11;;;;;;;33.97;23.27;;;4.10;71.90;;;;;;5069901;28;20539;-59
2021/01/11 01:56:36;;;;;;;35.33;24.83;;;4.10;72.00;;;;;;5078009;28;20754;-58
2021/01/11 01:59:03;;;;;;;32.03;23.63;;;4.00;72.30;;;;;;5065096;28;20036;-59
2021/01/11 02:01:29;;;;;;;30.47;22.30;;;4.00;72.50;;;;;;5073040;28;20071;-60
2021/01/11 02:03:55;;;;;;;34.20;23.57;;;4.00;72.80;;;;;;5074325;28;20470;-58
2021/01/11 02:06:25;;;;;;;33.27;23.23;;;4.00;72.00;;;;;;5067320;28;20089;-59
2021/01/11 02:09:00;;;;;;;31.37;22.00;;;4.00;72.10;;;;;;5073405;28;20068;-60
2021/01/11 02:11:54;;;;;;;29.63;22.00;;;4.00;72.40;;;;;;5067729;28;20047;-59
2021/01/11 02:14:40;;;;;;;30.53;23.30;;;4.00;72.80;;;;;;5057202;28;20079;-59
2021/01/11 02:17:07;;;;;;;33.93;22.53;;;3.90;71.80;;;;;;5030105;28;20405;-59
2021/01/11 02:20:10;;;;;;;34.13;22.97;;;3.90;72.50;;;;;;5024603;28;20440;-59
2021/01/11 02:22:40;;;;;;;35.57;23.03;;;3.90;72.60;;;;;;5051288;28;20455;-59
2021/01/11 02:25:31;;;;;;;32.90;22.37;;;3.90;73.10;;;;;;5075211;28;20032;-58
2021/01/11 02:27:59;;;;;;;33.30;22.03;;;3.90;72.40;;;;;;5042801;28;20044;-59
2021/01/11 02:30:32;;;;;;;29.60;21.37;;;3.90;72.20;;;;;;5077659;28;20039;-59
2021/01/11 02:33:04;;;;;;;31.20;22.57;;;3.90;72.30;;;;;;5077203;28;20048;-59
2021/01/11 02:35:32;;;;;;;31.03;23.00;;;3.90;72.30;;;;;;5075890;28;20142;-59
2021/01/11 02:37:59;;;;;;;29.43;21.40;;;3.90;71.80;;;;;;5072882;28;20055;-58
2021/01/11 02:40:25;;;;;;;35.13;22.57;;;3.90;71.90;;;;;;5073704;28;20049;-60
2021/01/11 02:42:50;;;;;;;31.23;21.53;;;3.90;72.00;;;;;;5049674;28;20040;-59
2021/01/11 02:45:16;;;;;;;30.57;20.37;;;3.90;72.30;;;;;;5072378;28;20044;-58
2021/01/11 02:47:51;;;;;;;30.50;21.37;;;3.90;72.00;;;;;;5059081;28;20032;-59
2021/01/11 02:50:22;;;;;;;29.95;21.50;;;3.90;72.10;;;;;;5071270;28;20063;-57
2021/01/11 02:52:50;;;;;;;29.07;20.93;;;3.90;71.90;;;;;;5075932;28;20097;-59
2021/01/11 02:55:25;;;;;;;30.20;20.93;;;3.90;71.70;;;;;;5077451;28;20036;-59
2021/01/11 02:58:10;;;;;;;26.00;20.20;;;3.90;71.30;;;;;;5058540;28;20079;-58
2021/01/11 03:00:38;;;;;;;31.60;21.08;;;3.80;70.80;;;;;;5067825;28;20067;-58
2021/01/11 03:03:11;;;;;;;32.73;19.53;;;3.70;71.10;;;;;;5070347;28;20150;-58
2021/01/11 03:05:37;;;;;;;25.03;18.67;;;3.80;71.30;;;;;;5082111;28;20044;-60
2021/01/11 03:08:03;;;;;;;24.70;18.87;;;3.70;71.80;;;;;;5074955;28;20067;-58
2021/01/11 03:10:29;;;;;;;30.57;18.67;;;3.80;72.30;;;;;;5076679;28;20151;-58
2021/01/11 03:12:55;;;;;;;30.13;20.37;;;3.70;71.10;;;;;;5071915;28;20123;-58
2021/01/11 03:15:21;;;;;;;26.33;19.70;;;3.70;71.90;;;;;;5065171;28;20877;-58
2021/01/11 03:17:46;;;;;;;28.40;19.67;;;3.70;71.50;;;;;;5078443;28;20040;-59
2021/01/11 03:20:13;;;;;;;24.23;18.17;;;3.70;71.40;;;;;;5080775;28;20261;-59
2021/01/11 03:22:39;;;;;;;26.10;18.10;;;3.70;72.00;;;;;;5075956;28;20086;-59
2021/01/11 03:25:06;;;;;;;26.03;18.53;;;3.60;71.70;;;;;;5080321;28;20444;-59
2021/01/11 03:27:32;;;;;;;27.07;18.17;;;3.70;72.00;;;;;;5074297;28;20109;-58
2021/01/11 03:29:57;;;;;;;23.67;17.07;;;3.70;71.70;;;;;;5078595;28;20075;-59
2021/01/11 03:32:23;;;;;;;25.03;17.53;;;3.50;70.90;;;;;;5068305;28;20506;-59
2021/01/11 03:34:49;;;;;;;26.60;17.00;;;3.60;71.80;;;;;;5074938;28;20077;-59
2021/01/11 03:37:15;;;;;;;25.13;17.60;;;3.50;71.50;;;;;;5084423;28;20406;-58
2021/01/11 03:39:41;;;;;;;21.17;16.97;;;3.50;72.10;;;;;;5076339;28;20402;-59
2021/01/11 03:42:07;;;;;;;24.13;16.43;;;3.60;71.70;;;;;;5080427;28;20032;-57
2021/01/11 03:44:32;;;;;;;22.77;15.47;;;3.60;71.60;;;;;;5072279;28;20032;-59
2021/01/11 03:46:58;;;;;;;22.17;15.63;;;3.50;71.30;;;;;;5084020;28;20119;-58
2021/01/11 03:49:24;;;;;;;19.73;15.20;;;3.60;71.50;;;;;;5071857;28;20071;-60
2021/01/11 03:51:50;;;;;;;19.83;15.17;;;3.50;71.40;;;;;;5064157;28;20040;-59
2021/01/11 03:54:16;;;;;;;22.00;14.50;;;3.50;71.90;;;;;;5056179;28;20097;-57
2021/01/11 03:56:42;;;;;;;21.40;15.40;;;3.50;71.40;;;;;;5079581;28;20052;-58
2021/01/11 03:59:07;;;;;;;19.97;14.67;;;3.50;72.20;;;;;;5074569;28;20430;-59
2021/01/11 04:01:37;;;;;;;24.10;16.73;;;3.50;71.60;;;;;;5082399;28;20105;-59
2021/01/11 04:04:03;;;;;;;21.93;16.13;;;3.50;72.00;;;;;;5077733;28;20044;-59
2021/01/11 04:06:29;;;;;;;27.83;16.70;;;3.50;72.00;;;;;;5079257;28;20117;-59
2021/01/11 04:08:55;;;;;;;22.63;15.40;;;3.40;71.80;;;;;;5070458;28;20494;-58
2021/01/11 04:11:21;;;;;;;21.17;15.93;;;3.40;71.50;;;;;;5063571;28;20032;-59
2021/01/11 04:13:48;;;;;;;21.00;14.33;;;3.40;72.10;;;;;;5078954;28;20028;-58
2021/01/11 04:16:15;;;;;;;21.53;15.33;;;3.40;72.10;;;;;;5076438;28;20044;-59
2021/01/11 04:18:41;;;;;;;20.43;14.90;;;3.30;72.60;;;;;;5077801;28;20042;-58
2021/01/11 04:21:10;;;;;;;22.07;15.17;;;3.40;72.30;;;;;;5081174;28;20119;-58
2021/01/11 04:23:36;;;;;;;24.13;14.03;;;3.40;71.50;;;;;;5054188;28;20443;-59
2021/01/11 04:26:02;;;;;;;19.83;14.53;;;3.40;72.00;;;;;;5075410;28;20075;-58
2021/01/11 04:28:27;;;;;;;24.87;15.60;;;3.30;72.40;;;;;;5079284;28;20039;-58
2021/01/11 04:30:53;;;;;;;19.73;14.13;;;3.30;72.30;;;;;;5075272;28;20094;-59
2021/01/11 04:33:18;;;;;;;20.73;14.37;;;3.30;71.70;;;;;;5079639;28;20234;-58
2021/01/11 04:35:44;;;;;;;17.57;13.10;;;3.30;72.40;;;;;;5072161;28;20052;-59
2021/01/11 04:38:10;;;;;;;24.40;12.93;;;3.30;71.70;;;;;;5067617;28;20042;-59
2021/01/11 04:40:35;;;;;;;16.23;12.40;;;3.30;71.20;;;;;;5075893;28;20052;-59
2021/01/11 04:43:18;;;;;;;17.67;12.67;;;3.20;71.50;;;;;;5080947;28;20077;-59
2021/01/11 04:45:44;;;;;;;16.13;12.07;;;3.20;70.60;;;;;;5042977;28;20089;-59
2021/01/11 04:48:12;;;;;;;17.40;13.33;;;3.10;70.90;;;;;;5068662;28;20052;-58
2021/01/11 04:50:39;;;;;;;19.40;11.47;;;3.10;71.20;;;;;;5075486;28;20049;-58
2021/01/11 04:53:10;;;;;;;15.50;12.00;;;3.10;71.60;;;;;;5062249;28;20035;-56
2021/01/11 04:55:39;;;;;;;15.77;11.13;;;3.10;71.50;;;;;;5056068;28;20056;-58
2021/01/11 04:58:09;;;;;;;16.00;10.90;;;3.00;71.00;;;;;;5076091;28;20041;-59
2021/01/11 05:00:36;;;;;;;10.53;9.03;;;3.10;71.10;;;;;;5077257;28;20032;-59
2021/01/11 05:03:09;;;;;;;15.67;10.77;;;3.10;70.00;;;;;;5076321;28;20038;-59
2021/01/11 05:05:45;;;;;;;15.27;11.00;;;3.10;70.10;;;;;;5077376;28;20028;-59
2021/01/11 05:08:10;;;;;;;14.73;10.57;;;3.10;69.90;;;;;;5026217;28;20115;-59
2021/01/11 05:10:38;;;;;;;15.30;10.90;;;3.10;70.40;;;;;;5078650;28;20434;-59
2021/01/11 05:13:06;;;;;;;15.07;11.27;;;3.10;70.00;;;;;;5073831;28;20040;-58
2021/01/11 05:15:33;;;;;;;14.77;10.27;;;3.10;69.10;;;;;;5049426;28;20061;-58
2021/01/11 05:17:59;;;;;;;17.30;10.43;;;3.10;70.60;;;;;;5052411;28;20119;-58
2021/01/11 05:20:27;;;;;;;13.43;10.03;;;3.10;71.00;;;;;;5074908;28;20084;-59
2021/01/11 05:22:55;;;;;;;14.17;9.93;;;3.00;70.90;;;;;;5053520;28;20464;-58
2021/01/11 05:25:25;;;;;;;14.17;10.53;;;3.10;71.20;;;;;;5035999;28;20076;-60
2021/01/11 05:28:06;;;;;;;15.43;10.63;;;3.10;71.20;;;;;;5070738;28;20494;-59
2021/01/11 05:30:46;;;;;;;12.97;9.17;;;3.00;70.60;;;;;;5070172;28;20036;-57
2021/01/11 05:33:18;;;;;;;17.53;10.50;;;3.00;70.30;;;;;;5070272;28;20041;-58
2021/01/11 05:35:44;;;;;;;15.03;9.93;;;3.00;70.80;;;;;;5069763;28;20101;-59
2021/01/11 05:38:16;;;;;;;13.47;8.67;;;3.00;70.50;;;;;;5072272;28;20044;-58
2021/01/11 05:40:43;;;;;;;12.07;8.63;;;3.00;70.20;;;;;;5017073;28;20402;-57
2021/01/11 05:43:16;;;;;;;12.60;8.63;;;3.10;70.60;;;;;;5037003;28;20032;-59
2021/01/11 05:45:42;;;;;;;14.33;8.90;;;3.00;70.80;;;;;;5052354;28;20043;-59
2021/01/11 05:48:09;;;;;;;14.50;9.60;;;3.00;70.40;;;;;;5073386;28;20033;-57
2021/01/11 05:50:36;;;;;;;15.50;10.07;;;3.10;70.90;;;;;;5004439;28;20028;-59
2021/01/11 05:53:02;;;;;;;14.20;8.63;;;3.00;69.70;;;;;;5061948;28;20047;-58
2021/01/11 05:55:32;;;;;;;15.33;9.60;;;3.10;69.90;;;;;;5074885;28;20050;-59
2021/01/11 05:58:00;;;;;;;12.20;8.63;;;3.20;69.80;;;;;;5053474;28;22955;-58
2021/01/11 06:00:29;;;;;;;16.00;9.37;;;3.10;69.70;;;;;;5069495;28;20048;-59
2021/01/11 06:02:56;;;;;;;13.43;8.70;;;3.10;69.70;;;;;;5054529;28;20032;-58
2021/01/11 06:05:22;;;;;;;12.33;9.07;;;3.10;69.20;;;;;;5061633;28;20433;-59
2021/01/11 06:07:49;;;;;;;12.60;8.37;;;3.00;68.50;;;;;;5059010;28;20039;-56
2021/01/11 06:10:16;;;;;;;10.40;8.17;;;3.00;69.00;;;;;;5056740;28;20599;-59
2021/01/11 06:12:43;;;;;;;14.60;8.60;;;3.10;69.10;;;;;;5059052;28;20036;-59
2021/01/11 06:15:11;;;;;;;12.07;8.30;;;3.10;68.70;;;;;;5071726;28;20043;-58
2021/01/11 06:17:39;;;;;;;13.50;8.20;;;3.10;69.00;;;;;;5080792;28;20068;-59
2021/01/11 06:20:07;;;;;;;11.30;8.17;;;3.10;68.90;;;;;;5034038;28;20056;-59
2021/01/11 06:22:44;;;;;;;15.57;8.63;;;3.10;69.10;;;;;;5045114;28;20469;-59
2021/01/11 06:25:26;;;;;;;12.80;9.40;;;3.10;69.10;;;;;;5056301;28;20036;-58
2021/01/11 06:28:02;;;;;;;13.70;8.73;;;3.10;70.10;;;;;;5036689;28;20048;-59
2021/01/11 06:30:34;;;;;;;12.70;7.20;;;3.00;70.20;;;;;;5052434;28;20048;-58
2021/01/11 06:33:08;;;;;;;11.57;8.33;;;3.10;69.80;;;;;;5051678;28;20037;-58
2021/01/11 06:35:41;;;;;;;11.27;8.07;;;3.10;70.20;;;;;;5054732;28;20075;-59
2021/01/11 06:38:20;;;;;;;15.37;9.13;;;3.00;70.00;;;;;;5074654;28;20115;-60
2021/01/11 06:40:52;;;;;;;14.87;8.33;;;3.00;70.50;;;;;;5048294;28;20070;-58
2021/01/11 06:43:19;;;;;;;13.83;9.37;;;3.00;70.40;;;;;;5078792;28;20037;-58
2021/01/11 06:45:46;;;;;;;13.17;8.33;;;3.00;71.10;;;;;;5073944;28;20501;-59
2021/01/11 06:48:20;;;;;;;13.33;8.37;;;3.10;70.00;;;;;;5078322;28;20040;-58
2021/01/11 06:50:48;;;;;;;10.20;7.97;;;3.10;70.60;;;;;;5058523;28;20040;-57
2021/01/11 06:53:25;;;;;;;14.63;8.67;;;3.10;70.00;;;;;;5060823;28;20591;-58
2021/01/11 06:56:04;;;;;;;15.73;8.47;;;3.00;70.40;;;;;;5049085;28;20041;-59
2021/01/11 06:58:32;;;;;;;16.57;8.70;;;3.10;71.00;;;;;;5048532;28;20059;-58
2021/01/11 07:01:14;;;;;;;16.33;9.57;;;3.00;71.20;;;;;;5068567;28;20051;-58
2021/01/11 07:03:49;;;;;;;13.97;8.77;;;3.10;71.20;;;;;;5063898;28;20321;-58
2021/01/11 07:06:34;;;;;;;14.07;8.40;;;3.20;71.00;;;;;;5058525;28;20032;-56
2021/01/11 07:09:13;;;;;;;14.77;9.05;;;3.20;71.20;;;;;;5070876;28;20391;-58
2021/01/11 07:11:49;;;;;;;14.70;9.00;;;3.20;71.60;;;;;;5043206;28;20062;-58
2021/01/11 07:14:22;;;;;;;15.53;9.20;;;3.10;71.30;;;;;;5039536;28;20044;-59
2021/01/11 07:16:56;;;;;;;13.33;8.63;;;3.20;71.10;;;;;;5059852;28;20117;-59
2021/01/11 07:19:42;;;;;;;14.97;9.40;;;3.20;71.20;;;;;;5048218;28;20068;-59
2021/01/11 07:22:10;;;;;;;17.60;9.30;;;3.20;71.70;;;;;;5038387;28;20482;-59
2021/01/11 07:24:40;;;;;;;22.07;10.00;;;3.20;70.80;;;;;;5064435;28;20040;-59
2021/01/11 07:27:06;;;;;;;16.33;9.50;;;3.20;72.10;;;;;;5080222;28;20044;-60
2021/01/11 07:29:32;;;;;;;17.57;10.00;;;3.30;71.30;;;;;;5053957;28;20506;-59
2021/01/11 07:31:58;;;;;;;16.17;10.63;;;3.30;71.60;;;;;;5073854;28;20051;-60
2021/01/11 07:34:24;;;;;;;19.07;9.77;;;3.30;71.40;;;;;;5070996;28;20036;-60
2021/01/11 07:36:55;;;;;;;14.97;10.60;;;3.30;71.30;;;;;;5066566;28;20127;-60
2021/01/11 07:39:31;;;;;;;16.33;10.20;;;3.30;71.60;;;;;;5075456;28;20039;-56
2021/01/11 07:42:02;;;;;;;17.97;9.73;;;3.30;71.50;;;;;;5080750;28;20044;-58
2021/01/11 07:44:38;;;;;;;18.20;10.73;;;3.30;71.90;;;;;;5071804;28;20119;-59
2021/01/11 07:47:09;;;;;;;18.17;9.70;;;3.40;72.20;;;;;;5084843;28;20131;-58
2021/01/11 07:49:40;;;;;;;20.90;9.73;;;3.40;71.80;;;;;;5073500;28;20040;-58
2021/01/11 07:52:25;;;;;;;16.77;9.13;;;3.40;72.10;;;;;;5078766;28;20083;-58
2021/01/11 07:54:58;;;;;;;;;;;3.40;71.80;;;;;;5047831;28;20044;-58
2021/01/11 07:57:27;;;;;;;23.73;14.77;;;3.40;72.00;;;;;;5077015;28;19929;-58
2021/01/11 08:00:19;;;;;;;24.37;16.10;;;3.40;73.80;;;;;;5075861;28;20052;-59
2021/01/11 08:02:46;;;;;;;30.37;18.90;;;3.50;75.60;;;;;;5048283;28;20131;-58
2021/01/11 08:05:21;;;;;;;29.43;17.63;;;3.50;75.10;;;;;;5075852;28;20067;-59
2021/01/11 08:07:54;;;;;;;35.80;18.27;;;3.60;75.20;;;;;;5083882;28;20028;-59
2021/01/11 08:10:23;;;;;;;29.00;18.50;;;3.60;74.60;;;;;;5075458;28;20028;-58
2021/01/11 08:12:49;;;;;;;29.00;18.73;;;3.50;74.40;;;;;;5082970;28;20028;-59
2021/01/11 08:15:18;;;;;;;29.30;17.77;;;3.50;73.90;;;;;;5076337;28;20064;-58
2021/01/11 08:17:44;;;;;;;27.17;18.57;;;3.60;75.30;;;;;;5052748;28;20086;-60
2021/01/11 08:20:10;;;;;;;23.13;16.17;;;3.60;74.80;;;;;;5074449;28;20047;-59
2021/01/11 08:22:35;;;;;;;23.87;15.63;;;3.50;73.60;;;;;;5084526;28;20497;-60
2021/01/11 08:25:01;;;;;;;24.03;16.40;;;3.60;73.80;;;;;;5073959;28;20110;-59
2021/01/11 08:27:39;;;;;;;21.03;15.20;;;3.60;73.70;;;;;;5082437;28;20028;-57
2021/01/11 08:30:08;;;;;;;26.07;14.80;;;3.60;72.40;;;;;;5051294;28;20039;-56
2021/01/11 08:32:35;;;;;;;26.60;14.53;;;3.60;73.30;;;;;;5074058;28;20081;-59
2021/01/11 08:35:11;;;;;;;20.77;14.10;;;3.60;72.70;;;;;;5079683;28;20528;-58
2021/01/11 08:37:37;;;;;;;23.07;15.53;;;3.60;72.20;;;;;;5022230;28;20070;-59
2021/01/11 08:40:20;;;;;;;24.67;15.30;;;3.60;71.90;;;;;;5076890;28;20037;-59
2021/01/11 08:42:47;;;;;;;20.63;14.23;;;3.70;70.80;;;;;;5043164;28;20126;-59
2021/01/11 08:45:29;;;;;;;20.10;13.60;;;3.70;71.60;;;;;;5063467;28;20409;-56
2021/01/11 08:48:15;;;;;;;17.53;13.70;;;3.60;70.80;;;;;;5078146;28;20136;-58
2021/01/11 08:50:42;;;;;;;22.83;14.43;;;3.60;69.30;;;;;;5070790;28;20470;-58
2021/01/11 08:53:32;;;;;;;20.77;14.23;;;3.60;70.50;;;;;;5048333;28;20513;-59
2021/01/11 08:56:04;;;;;;;19.90;12.87;;;3.70;69.60;;;;;;5048089;28;20051;-60
2021/01/11 08:58:31;;;;;;;21.10;13.13;;;3.70;70.20;;;;;;5067364;28;20101;-59
2021/01/11 09:01:10;;;;;;;20.97;12.60;;;3.70;70.10;;;;;;5077913;28;20086;-60
2021/01/11 09:03:50;;;;;;;17.40;11.90;;;4.00;68.50;;;;;;5082442;28;20043;-58
2021/01/11 09:06:35;;;;;;;17.77;11.97;;;4.30;66.90;;;;;;5069818;28;20390;-59
2021/01/11 09:09:09;;;;;;;16.27;11.97;;;4.00;67.50;;;;;;5079827;28;20040;-58
2021/01/11 09:11:35;;;;;;;15.37;9.97;;;3.90;68.20;;;;;;5077245;28;20035;-59
2021/01/11 09:14:15;;;;;;;16.40;10.67;;;3.90;67.00;;;;;;5074479;28;20056;-60
2021/01/11 09:16:42;;;;;;;16.07;10.17;;;3.80;67.50;;;;;;5073287;28;20135;-59
2021/01/11 09:19:12;;;;;;;23.90;12.03;;;3.80;67.60;;;;;;5072798;28;20097;-58
2021/01/11 09:21:39;;;;;;;15.03;10.00;;;3.90;67.90;;;;;;5077800;28;20067;-59
2021/01/11 09:24:06;;;;;;;17.77;11.47;;;3.80;67.60;;;;;;5083870;28;20043;-59
2021/01/11 09:26:35;;;;;;;20.33;11.33;;;3.90;68.30;;;;;;5083800;28;20118;-60
2021/01/11 09:29:01;;;;;;;17.43;11.80;;;3.90;67.90;;;;;;5073732;28;20067;-59
2021/01/11 09:31:27;;;;;;;18.03;12.50;;;3.90;68.30;;;;;;5075541;28;20041;-59
2021/01/11 09:33:53;;;;;;;19.47;12.33;;;4.00;68.30;;;;;;5073868;28;20032;-60
2021/01/11 09:36:22;;;;;;;16.30;11.50;;;4.00;68.30;;;;;;5081823;28;20048;-59
2021/01/11 09:38:49;;;;;;;25.90;12.57;;;4.00;68.10;;;;;;5077778;28;20040;-59
2021/01/11 09:41:15;;;;;;;20.10;12.07;;;4.00;67.90;;;;;;5080212;28;20055;-59
2021/01/11 09:43:42;;;;;;;15.80;10.70;;;4.00;67.30;;;;;;5077413;28;20127;-59
2021/01/11 09:46:10;;;;;;;17.10;11.53;;;4.10;67.20;;;;;;5080127;28;20051;-60
2021/01/11 09:48:37;;;;;;;14.77;10.67;;;4.10;66.60;;;;;;5079677;28;20048;-60
2021/01/11 09:51:03;;;;;;;16.07;10.20;;;4.20;67.00;;;;;;5078826;28;20075;-58
2021/01/11 09:53:29;;;;;;;18.10;10.57;;;4.10;67.10;;;;;;5079032;28;20059;-59
2021/01/11 09:55:54;;;;;;;13.67;10.13;;;4.20;68.00;;;;;;5080913;28;20071;-59
2021/01/11 09:58:20;;;;;;;17.40;11.73;;;4.20;66.40;;;;;;5058012;28;20822;-58
2021/01/11 10:00:46;;;;;;;15.53;9.90;;;4.30;68.10;;;;;;5075924;28;20048;-59
2021/01/11 10:03:11;;;;;;;15.90;10.03;;;4.30;66.00;;;;;;5072026;28;20055;-59
2021/01/11 10:05:37;;;;;;;20.23;9.70;;;4.30;66.10;;;;;;5080918;28;20492;-60
2021/01/11 10:08:03;;;;;;;14.33;9.40;;;4.20;65.00;;;;;;5078691;28;20044;-57
2021/01/11 10:10:29;;;;;;;13.23;9.50;;;4.30;66.30;;;;;;5077105;28;20040;-58
2021/01/11 10:12:54;;;;;;;16.87;10.70;;;4.40;65.90;;;;;;5076290;28;20044;-59
2021/01/11 10:15:20;;;;;;;16.57;10.03;;;4.40;66.40;;;;;;5076096;28;20036;-59
2021/01/11 10:17:46;;;;;;;13.57;9.97;;;4.40;65.70;;;;;;5079713;28;20394;-59
2021/01/11 10:20:12;;;;;;;14.83;10.80;;;4.40;65.60;;;;;;5075575;28;20040;-58
2021/01/11 10:22:38;;;;;;;17.43;11.53;;;4.50;65.40;;;;;;5081193;28;20040;-58
2021/01/11 10:25:05;;;;;;;21.43;11.27;;;4.50;65.70;;;;;;5076363;28;20032;-60
2021/01/11 10:27:31;;;;;;;16.83;10.83;;;4.50;65.30;;;;;;5067272;28;20041;-59
2021/01/11 10:29:56;;;;;;;17.93;10.83;;;4.60;65.30;;;;;;5075559;28;20112;-60
2021/01/11 10:32:22;;;;;;;15.27;10.13;;;4.60;66.40;;;;;;5079911;28;20439;-59
2021/01/11 10:34:48;;;;;;;21.27;11.70;;;4.70;65.40;;;;;;5073087;28;20040;-59
2021/01/11 10:37:14;;;;;;;19.50;12.63;;;4.60;65.40;;;;;;5077944;28;20169;-58
2021/01/11 10:39:39;;;;;;;16.60;10.50;;;4.80;65.20;;;;;;5061463;28;20097;-60
2021/01/11 10:42:05;;;;;;;17.77;11.30;;;4.80;65.80;;;;;;5066983;28;20093;-59
2021/01/11 10:44:31;;;;;;;17.97;11.40;;;4.80;65.60;;;;;;5079660;28;20052;-58
2021/01/11 10:47:01;;;;;;;20.03;11.70;;;4.80;65.70;;;;;;5069346;28;20486;-59
2021/01/11 10:49:31;;;;;;;18.23;11.10;;;4.80;64.00;;;;;;5057887;28;20043;-63
2021/01/11 10:51:57;;;;;;;20.00;11.80;;;4.90;65.00;;;;;;5062694;28;20037;-63
2021/01/11 10:54:23;;;;;;;16.23;11.10;;;5.00;64.40;;;;;;5073545;28;20425;-69
2021/01/11 10:56:51;;;;;;;15.83;10.10;;;5.00;64.40;;;;;;5073578;28;20524;-69
2021/01/11 10:59:17;;;;;;;14.67;10.13;;;5.00;66.40;;;;;;5077231;28;20405;-61
2021/01/11 11:01:43;;;;;;;18.87;10.60;;;5.00;62.70;;;;;;5074952;28;20064;-62
2021/01/11 11:04:10;;;;;;;16.80;10.07;;;5.00;63.00;;;;;;5077575;28;20129;-61
2021/01/11 11:06:36;;;;;;;16.63;10.13;;;5.10;63.60;;;;;;5060925;28;20032;-61
2021/01/11 11:09:02;;;;;;;14.43;9.43;;;5.10;63.50;;;;;;5080701;28;21009;-61
2021/01/11 11:11:28;;;;;;;14.50;10.27;;;5.00;62.40;;;;;;5070323;28;20043;-59
2021/01/11 11:13:53;;;;;;;15.83;10.47;;;5.10;63.10;;;;;;5083858;28;20040;-60
2021/01/11 11:16:19;;;;;;;17.83;10.27;;;5.10;62.50;;;;;;5030367;28;20155;-60
2021/01/11 11:18:44;;;;;;;17.53;10.27;;;5.10;63.40;;;;;;5054633;28;20033;-58
2021/01/11 11:21:12;;;;;;;19.87;10.20;;;5.20;63.50;;;;;;5069666;28;20336;-59
2021/01/11 11:23:38;;;;;;;18.27;10.13;;;5.20;64.10;;;;;;5076956;28;20036;-58
2021/01/11 11:26:05;;;;;;;17.33;11.53;;;5.30;63.60;;;;;;5082779;28;20040;-61
2021/01/11 11:28:33;;;;;;;19.57;10.87;;;5.30;63.10;;;;;;5072704;28;20035;-58
2021/01/11 11:30:58;;;;;;;18.00;10.03;;;5.30;62.70;;;;;;5041422;28;20048;-60
2021/01/11 11:33:30;;;;;;;16.80;10.50;;;5.30;62.70;;;;;;5062366;28;20055;-61
2021/01/11 11:35:56;;;;;;;14.77;10.13;;;5.30;62.70;;;;;;5019961;28;20140;-57
2021/01/11 11:38:23;;;;;;;15.33;10.33;;;5.40;63.50;;;;;;5055046;28;20081;-55
2021/01/11 11:40:51;;;;;;;18.10;11.43;;;5.40;63.30;;;;;;5083978;28;20059;-57
2021/01/11 11:43:17;;;;;;;20.53;11.93;;;5.50;63.60;;;;;;5080057;28;20043;-56
2021/01/11 11:45:43;;;;;;;15.97;10.33;;;5.50;62.00;;;;;;5083822;28;20044;-57
2021/01/11 11:48:16;;;;;;;16.87;10.10;;;5.50;63.80;;;;;;5076035;28;20047;-55
2021/01/11 11:50:43;;;;;;;16.83;10.50;;;5.60;63.80;;;;;;5080952;28;20021;-55
2021/01/11 11:53:08;;;;;;;13.97;10.37;;;5.60;63.70;;;;;;5057730;28;20047;-56
2021/01/11 11:55:38;;;;;;;15.97;9.70;;;5.50;62.10;;;;;;5077371;28;20040;-58
2021/01/11 11:58:04;;;;;;;17.93;10.97;;;5.60;62.00;;;;;;5079660;28;20525;-57
2021/01/11 12:00:30;;;;;;;17.70;10.90;;;5.70;63.90;;;;;;5079691;28;20032;-56
2021/01/11 12:02:55;;;;;;;17.70;10.87;;;5.70;61.50;;;;;;5071508;28;20043;-55
2021/01/11 12:05:21;;;;;;;17.57;11.03;;;5.60;60.70;;;;;;5083826;28;20047;-57
2021/01/11 12:07:49;;;;;;;18.10;11.37;;;5.70;61.30;;;;;;5061073;28;20428;-58
2021/01/11 12:10:15;;;;;;;17.87;10.67;;;5.70;62.50;;;;;;5072332;28;20093;-58
2021/01/11 12:12:40;;;;;;;17.20;11.47;;;5.80;62.60;;;;;;5073786;28;20051;-55
2021/01/11 12:15:07;;;;;;;17.13;10.90;;;5.70;62.30;;;;;;5057307;28;20041;-55
2021/01/11 12:17:33;;;;;;;14.63;10.90;;;5.80;62.50;;;;;;5077566;28;20052;-56
2021/01/11 12:19:59;;;;;;;16.17;10.83;;;5.80;61.90;;;;;;5073370;28;20044;-54
2021/01/11 12:22:28;;;;;;;19.87;11.40;;;5.90;62.60;;;;;;5078675;28;20070;-55
2021/01/11 12:24:54;;;;;;;16.57;11.27;;;5.90;63.00;;;;;;5076040;28;20127;-57
2021/01/11 12:27:20;;;;;;;19.13;11.63;;;5.80;61.80;;;;;;5071102;28;20123;-56
2021/01/11 12:29:45;;;;;;;16.57;11.00;;;5.90;62.90;;;;;;5078498;28;20119;-54
2021/01/11 12:32:11;;;;;;;18.30;11.63;;;5.80;61.70;;;;;;5077171;28;20565;-55
2021/01/11 12:34:42;;;;;;;16.93;11.20;;;5.90;61.80;;;;;;5071169;28;20385;-54
2021/01/11 12:37:08;;;;;;;19.47;11.53;;;5.90;61.90;;;;;;5080579;28;20055;-56
2021/01/11 12:39:34;;;;;;;18.13;10.53;;;5.90;63.00;;;;;;5078145;28;20048;-56
2021/01/11 12:42:00;;;;;;;19.63;12.20;;;5.90;60.60;;;;;;5084350;28;20036;-56
2021/01/11 12:44:26;;;;;;;18.33;11.37;;;5.90;61.30;;;;;;5080531;28;20075;-52
2021/01/11 12:46:51;;;;;;;16.67;11.03;;;6.00;61.80;;;;;;5064841;28;20079;-52